Time;durP1;ratioP1;P1;durP2;ratioP2;P2;SDS_P1;SDS_P2;PMS_P1;PMS_P2;Temp;Humidity;BMP_temperature;BMP_pressure;BME280_temperature;BME280_humidity;BME280_pressure;Samples;Min_cycle;Max_cycle;Signal;HPM_P1;HPM_P2
2022/04/20 00:01:24;;;;;;;15.50;2.70;;;;;;;13.41;nan;101424.16;4811063;29;20448;-87
2022/04/20 00:03:53;;;;;;;18.30;2.70;;;;;;;13.45;nan;101425.47;4826631;29;20968;-87
2022/04/20 00:06:21;;;;;;;23.47;3.30;;;;;;;13.40;nan;101434.28;4833025;29;20448;-87
2022/04/20 00:08:49;;;;;;;17.57;3.00;;;;;;;13.40;nan;101405.97;4814627;29;20451;-87
2022/04/20 00:11:17;;;;;;;22.27;4.17;;;;;;;13.39;nan;101409.78;4829229;29;20460;-87
2022/04/20 00:13:46;;;;;;;18.37;2.63;;;;;;;13.44;nan;101413.63;4814162;29;20456;-88
2022/04/20 00:16:14;;;;;;;21.37;3.30;;;;;;;13.42;nan;101414.88;4816020;29;20456;-87
2022/04/20 00:18:41;;;;;;;23.40;3.07;;;;;;;13.36;nan;101407.41;4831001;29;20458;-88
2022/04/20 00:21:10;;;;;;;20.57;2.70;;;;;;;13.37;nan;101422.84;4830764;29;20502;-87
2022/04/20 00:23:38;;;;;;;13.03;2.30;;;;;;;13.40;nan;101427.94;4846791;29;20486;-87
2022/04/20 00:26:06;;;;;;;20.37;3.30;;;;;;;13.32;nan;101431.66;4832071;29;20954;-87
2022/04/20 00:28:33;;;;;;;17.57;3.70;;;;;;;13.31;nan;101434.59;4832187;29;20459;-87
2022/04/20 00:31:01;;;;;;;15.40;3.37;;;;;;;13.27;nan;101427.81;4859466;29;20973;-87
2022/04/20 00:33:29;;;;;;;12.10;2.90;;;;;;;13.29;nan;101444.91;4849748;29;20450;-87
2022/04/20 00:35:56;;;;;;;14.50;2.30;;;;;;;13.31;nan;101440.09;4874365;29;20450;-87
2022/04/20 00:38:24;;;;;;;15.23;2.63;;;;;;;13.29;nan;101425.69;4835232;29;20450;-87
2022/04/20 00:40:52;;;;;;;14.13;3.07;;;;;;;13.29;nan;101425.69;4864114;29;20454;-87
2022/04/20 00:43:19;;;;;;;19.57;3.33;;;;;;;13.30;nan;101430.16;4850359;29;20485;-87
2022/04/20 00:45:47;;;;;;;16.87;3.13;;;;;;;13.29;nan;101404.59;4879575;29;20467;-87
2022/04/20 00:48:15;;;;;;;31.63;3.40;;;;;;;13.31;nan;101418.13;4865309;29;20458;-87
2022/04/20 00:50:43;;;;;;;9.87;2.73;;;;;;;13.31;nan;101404.41;4864717;29;20953;-87
2022/04/20 00:53:10;;;;;;;14.70;3.03;;;;;;;13.32;nan;101408.84;4878896;29;20458;-87
2022/04/20 00:55:38;;;;;;;21.03;3.37;;;;;;;13.36;nan;101405.50;4850080;29;20450;-87
2022/04/20 00:58:05;;;;;;;14.70;3.40;;;;;;;13.31;nan;101404.41;4880432;29;20811;-87
2022/04/20 01:00:33;;;;;;;17.97;3.10;;;;;;;13.30;nan;101405.44;4864440;29;20455;-87
2022/04/20 01:03:01;;;;;;;8.70;2.53;;;;;;;13.32;nan;101412.44;4880314;29;20486;-87
2022/04/20 01:05:29;;;;;;;17.80;2.70;;;;;;;13.27;nan;101401.22;4879635;29;20829;-87
2022/04/20 01:07:56;;;;;;;13.00;2.93;;;;;;;13.28;nan;101407.53;4881011;29;20791;-86
2022/04/20 01:10:24;;;;;;;17.43;2.47;;;;;;;13.30;nan;101410.94;4880333;29;20446;-87
2022/04/20 01:12:53;;;;;;;14.80;2.30;;;;;;;13.24;nan;101411.72;4850327;29;20466;-87
2022/04/20 01:15:21;;;;;;;15.43;2.47;;;;;;;13.23;nan;101408.13;4864193;29;20898;-87
2022/04/20 01:17:51;;;;;;;13.17;2.33;;;;;;;13.22;nan;101416.56;4833532;29;20961;-87
2022/04/20 01:20:20;;;;;;;10.80;1.50;;;;;;;13.22;nan;101402.84;4864112;29;20477;-87
2022/04/20 01:22:48;;;;;;;8.23;2.27;;;;;;;13.24;nan;101404.34;4894985;29;20490;-87
2022/04/20 01:25:15;;;;;;;21.17;2.50;;;;;;;13.23;nan;101405.38;4879898;29;20461;-87
2022/04/20 01:27:43;;;;;;;12.00;2.63;;;;;;;13.26;nan;101409.66;4849778;29;20453;-87
2022/04/20 01:30:11;;;;;;;20.73;2.93;;;;;;;13.26;nan;101406.91;4873354;29;20544;-86
2022/04/20 01:32:39;;;;;;;25.43;4.10;;;;;;;13.22;nan;101405.59;4849770;29;20447;-87
2022/04/20 01:35:09;;;;;;;12.90;2.70;;;;;;;13.25;nan;101391.47;4849170;29;20465;-87
2022/04/20 01:37:37;;;;;;;24.90;3.20;;;;;;;13.27;nan;101392.13;4846755;29;20451;-86
2022/04/20 01:40:10;;;;;;;20.37;2.73;;;;;;;13.30;nan;101395.31;4850241;29;20824;-86
2022/04/20 01:42:38;;;;;;;23.20;3.20;;;;;;;13.31;nan;101398.91;4856703;29;20482;-87
2022/04/20 01:45:10;;;;;;;17.17;3.47;;;;;;;13.29;nan;101401.00;4834918;29;20978;-88
2022/04/20 01:47:38;;;;;;;18.20;2.23;;;;;;;13.25;nan;101394.22;4864340;29;20449;-88
2022/04/20 01:50:06;;;;;;;9.33;1.93;;;;;;;13.24;nan;101396.13;4859809;29;20463;-87
2022/04/20 01:52:34;;;;;;;14.33;2.73;;;;;;;13.26;nan;101382.19;4815733;29;20452;-86
2022/04/20 01:55:01;;;;;;;17.23;2.63;;;;;;;13.25;nan;101385.97;4828076;29;20450;-87
2022/04/20 01:57:29;;;;;;;13.10;2.53;;;;;;;13.22;nan;101386.38;4879457;29;20447;-87
2022/04/20 01:59:57;;;;;;;15.70;2.40;;;;;;;13.20;nan;101386.56;4863243;29;20460;-87
2022/04/20 02:02:38;;;;;;;10.20;2.17;;;;;;;13.20;nan;101393.94;4863857;29;20556;-87
2022/04/20 02:05:12;;;;;;;19.00;3.20;;;;;;;13.22;nan;101386.38;4862123;29;20459;-87
2022/04/20 02:07:40;;;;;;;17.53;2.37;;;;;;;13.22;nan;101372.66;4830154;29;20466;-87
2022/04/20 02:10:09;;;;;;;14.47;2.20;;;;;;;13.22;nan;101384.47;4863620;29;20826;-87
2022/04/20 02:12:41;;;;;;;19.60;2.60;;;;;;;13.26;nan;101355.59;4863616;29;20814;-87
2022/04/20 02:15:09;;;;;;;12.33;2.10;;;;;;;13.21;nan;101354.47;4880165;29;20453;-87
2022/04/20 02:17:37;;;;;;;15.10;2.83;;;;;;;13.24;nan;101367.81;4879211;29;20461;-87
2022/04/20 02:20:05;;;;;;;12.90;2.93;;;;;;;13.25;nan;101348.41;4878793;29;20950;-86
2022/04/20 02:22:34;;;;;;;14.33;3.03;;;;;;;13.27;nan;101348.22;4804001;29;20898;-86
2022/04/20 02:25:03;;;;;;;17.83;2.10;;;;;;;13.28;nan;101349.88;4800096;29;21031;-87
2022/04/20 02:27:31;;;;;;;18.17;3.30;;;;;;;13.23;nan;101333.16;4771206;30;20545;-87
2022/04/20 02:29:59;;;;;;;18.53;2.70;;;;;;;13.20;nan;101361.84;4782464;29;20506;-87
2022/04/20 02:32:27;;;;;;;17.47;1.93;;;;;;;13.25;nan;101345.66;4774945;29;20510;-87
2022/04/20 02:34:54;;;;;;;13.40;2.70;;;;;;;13.32;nan;101342.94;4773419;29;20458;-87
2022/04/20 02:37:22;;;;;;;13.63;3.03;;;;;;;13.25;nan;101364.88;4773853;29;20989;-87
2022/04/20 02:39:50;;;;;;;13.00;2.47;;;;;;;13.29;nan;101343.34;4783997;29;21171;-86
2022/04/20 02:42:17;;;;;;;16.90;3.30;;;;;;;13.23;nan;101324.94;4894034;29;20490;-87
2022/04/20 02:44:46;;;;;;;16.73;3.07;;;;;;;13.28;nan;101336.16;4878314;29;20517;-86
2022/04/20 02:47:16;;;;;;;14.93;3.43;;;;;;;13.30;nan;101340.41;4862787;29;20462;-87
2022/04/20 02:49:44;;;;;;;9.40;2.70;;;;;;;13.30;nan;101334.91;4862868;29;20454;-86
2022/04/20 02:52:12;;;;;;;18.47;3.00;;;;;;;13.29;nan;101340.59;4847982;29;20818;-86
2022/04/20 02:54:40;;;;;;;16.67;3.40;;;;;;;13.21;nan;101321.53;4856961;29;20515;-87
2022/04/20 02:57:08;;;;;;;11.80;2.43;;;;;;;13.27;nan;101356.44;4848157;29;20454;-87
2022/04/20 02:59:35;;;;;;;15.57;3.20;;;;;;;13.22;nan;101321.34;4862433;29;20473;-86
2022/04/20 03:02:03;;;;;;;23.73;3.80;;;;;;;13.20;nan;101295.97;4862774;29;20462;-85
2022/04/20 03:04:31;;;;;;;20.33;2.97;;;;;;;13.37;nan;101329.50;4842378;29;20451;-87
2022/04/20 03:07:00;;;;;;;17.90;2.87;;;;;;;13.32;nan;101318.25;4832601;29;20450;-86
2022/04/20 03:09:27;;;;;;;25.57;3.80;;;;;;;13.31;nan;101308.31;4832896;29;20490;-87
2022/04/20 03:11:55;;;;;;;20.27;2.90;;;;;;;13.28;nan;101326.03;4848434;29;20450;-86
2022/04/20 03:14:23;;;;;;;23.93;2.30;;;;;;;13.28;nan;101336.16;4847732;29;20949;-86
2022/04/20 03:16:51;;;;;;;14.13;2.40;;;;;;;13.28;nan;101319.69;4844121;29;20990;-86
2022/04/20 03:19:19;;;;;;;14.47;2.23;;;;;;;13.23;nan;101312.06;4843903;29;20481;-87
2022/04/20 03:21:49;;;;;;;22.70;5.20;;;;;;;13.25;nan;101325.59;4844382;29;20488;-87
2022/04/20 03:24:18;;;;;;;12.30;3.20;;;;;;;13.23;nan;101314.81;4857588;29;20479;-87
2022/04/20 03:26:46;;;;;;;9.93;2.37;;;;;;;13.26;nan;101328.16;4849292;29;20456;-87
2022/04/20 03:29:13;;;;;;;7.07;2.03;;;;;;;13.20;nan;101317.94;4847470;29;20824;-87
2022/04/20 03:31:41;;;;;;;15.67;3.00;;;;;;;13.22;nan;101313.09;4844362;29;20466;-87
2022/04/20 03:34:10;;;;;;;11.63;3.00;;;;;;;13.24;nan;101313.75;4847564;29;20510;-87
2022/04/20 03:36:38;;;;;;;13.53;2.20;;;;;;;13.26;nan;101310.81;4862687;29;20795;-87
2022/04/20 03:39:06;;;;;;;19.93;3.10;;;;;;;13.27;nan;101307.03;4848206;29;20458;-87
2022/04/20 03:41:33;;;;;;;16.30;2.83;;;;;;;13.24;nan;101301.94;4836063;29;20450;-87
2022/04/20 03:44:02;;;;;;;26.13;2.67;;;;;;;13.20;nan;101311.59;4836214;29;20493;-87
2022/04/20 03:46:30;;;;;;;12.07;3.07;;;;;;;13.25;nan;101314.63;4882311;29;20946;-87
2022/04/20 03:48:57;;;;;;;21.67;3.30;;;;;;;13.26;nan;101306.19;4879586;29;20877;-86
2022/04/20 03:51:25;;;;;;;14.80;2.10;;;;;;;13.28;nan;101298.56;4865611;29;20877;-87
2022/04/20 03:53:53;;;;;;;20.83;3.50;;;;;;;13.31;nan;101311.06;4866197;29;20447;-87
2022/04/20 03:56:21;;;;;;;13.37;2.73;;;;;;;13.34;nan;101305.16;4896877;29;20463;-87
2022/04/20 03:58:49;;;;;;;22.60;3.53;;;;;;;13.35;nan;101301.38;4865497;29;20462;-86
2022/04/20 04:01:18;;;;;;;9.83;2.70;;;;;;;13.40;nan;101301.66;4873550;29;20462;-86
2022/04/20 04:03:47;;;;;;;18.50;3.27;;;;;;;13.41;nan;101284.13;4850747;29;20492;-86
2022/04/20 04:06:15;;;;;;;23.97;2.97;;;;;;;13.38;nan;101298.25;4882614;29;20454;-87
2022/04/20 04:08:44;;;;;;;23.93;3.03;;;;;;;13.33;nan;101295.22;4849762;29;20596;-86
2022/04/20 04:11:12;;;;;;;18.60;2.70;;;;;;;13.30;nan;101295.63;4843375;29;20467;-87
2022/04/20 04:13:40;;;;;;;15.43;2.70;;;;;;;13.34;nan;101296.94;4863453;29;20456;-87
2022/04/20 04:16:10;;;;;;;8.03;2.00;;;;;;;13.33;nan;101301.56;4846884;29;20465;-86
2022/04/20 04:18:39;;;;;;;10.77;2.50;;;;;;;13.31;nan;101292.69;4881217;29;20964;-87
2022/04/20 04:21:07;;;;;;;15.90;2.87;;;;;;;13.25;nan;101288.00;4880107;29;21069;-87
2022/04/20 04:23:34;;;;;;;15.50;2.80;;;;;;;13.26;nan;101299.84;4865522;29;20497;-88
2022/04/20 04:26:02;;;;;;;18.30;3.00;;;;;;;13.26;nan;101324.53;4835289;29;20462;-87
2022/04/20 04:28:30;;;;;;;15.93;2.30;;;;;;;13.19;nan;101288.78;4846450;29;20503;-87
2022/04/20 04:30:58;;;;;;;18.70;2.17;;;;;;;13.21;nan;101299.56;4865413;29;20465;-87
2022/04/20 04:33:26;;;;;;;14.43;1.80;;;;;;;13.17;nan;101279.91;4865626;29;20450;-87
2022/04/20 04:35:55;;;;;;;19.27;2.60;;;;;;;13.04;nan;101255.91;4849972;29;20457;-86
2022/04/20 04:38:25;;;;;;;17.07;2.10;;;;;;;13.09;nan;101272.63;4864219;29;20454;-86
2022/04/20 04:40:53;;;;;;;14.40;2.10;;;;;;;13.06;nan;101262.06;4881257;29;20450;-86
2022/04/20 04:43:24;;;;;;;10.33;1.80;;;;;;;13.05;nan;101257.63;4835592;29;20486;-87
2022/04/20 04:48:39;;;;;;;15.13;2.50;;;;;;;13.10;nan;101257.00;4854961;29;20458;-86
2022/04/20 04:51:10;;;;;;;10.07;2.00;;;;;;;13.04;nan;101266.88;4879278;29;20462;-87
2022/04/20 04:53:38;;;;;;;11.13;1.83;;;;;;;12.96;nan;101257.94;4863478;29;21026;-86
2022/04/20 04:56:09;;;;;;;9.70;2.37;;;;;;;12.96;nan;101258.78;4818108;29;20512;-86
2022/04/20 04:58:38;;;;;;;13.70;2.00;;;;;;;12.94;nan;101252.63;4831452;29;20451;-86
2022/04/20 05:01:06;;;;;;;16.90;1.47;;;;;;;12.97;nan;101260.47;4831738;29;20480;-87
2022/04/20 05:03:35;;;;;;;28.23;2.83;;;;;;;12.93;nan;101245.44;4846312;29;20488;-87
2022/04/20 05:06:04;;;;;;;13.60;1.60;;;;;;;12.94;nan;101244.41;4863130;29;20456;-87
2022/04/20 05:08:32;;;;;;;11.20;2.20;;;;;;;12.95;nan;101281.78;4862795;29;20451;-86
2022/04/20 05:11:01;;;;;;;15.37;2.17;;;;;;;12.93;nan;101267.41;4879267;29;20455;-87
2022/04/20 05:13:29;;;;;;;16.20;2.30;;;;;;;12.88;nan;101264.41;4864865;29;20450;-87
2022/04/20 05:15:56;;;;;;;19.37;2.30;;;;;;;12.86;nan;101302.16;4849464;29;20473;-87
2022/04/20 05:18:24;;;;;;;13.30;2.37;;;;;;;12.84;nan;101290.53;4849510;29;20529;-87
2022/04/20 05:20:53;;;;;;;15.30;2.60;;;;;;;12.78;nan;101263.88;4834053;29;20486;-87
2022/04/20 05:23:20;;;;;;;16.73;2.70;;;;;;;12.86;nan;101288.44;4863607;29;20861;-86
2022/04/20 05:25:48;;;;;;;18.67;3.17;;;;;;;12.84;nan;101273.22;4864063;29;20455;-86
2022/04/20 05:28:16;;;;;;;24.00;3.77;;;;;;;12.86;nan;101276.63;4864671;29;20459;-86
2022/04/20 05:30:44;;;;;;;21.13;2.73;;;;;;;12.85;nan;101292.25;4849367;29;20457;-87
2022/04/20 05:33:12;;;;;;;16.23;2.93;;;;;;;12.88;nan;101304.72;4863278;29;20481;-86
2022/04/20 05:35:39;;;;;;;18.97;3.07;;;;;;;12.92;nan;101314.22;4847441;29;20475;-86
2022/04/20 05:43:42;;;;;;;11.63;2.50;;;;;;;12.80;nan;101305.69;4866822;29;20498;-87
2022/04/20 05:46:10;;;;;;;12.73;2.00;;;;;;;12.76;nan;101298.88;4864309;29;20454;-87
2022/04/20 05:48:39;;;;;;;9.67;2.23;;;;;;;12.76;nan;101290.66;4863561;29;20522;-87
2022/04/20 05:51:08;;;;;;;9.83;2.60;;;;;;;12.75;nan;101286.22;4889165;29;20470;-87
2022/04/20 05:53:38;;;;;;;17.03;3.70;;;;;;;12.74;nan;101301.81;4848601;29;20454;-88
2022/04/20 05:56:07;;;;;;;15.53;2.70;;;;;;;12.72;nan;101303.06;4846378;29;20462;-87
2022/04/20 05:58:35;;;;;;;13.70;3.00;;;;;;;12.73;nan;101296.53;4845442;29;20455;-88
2022/04/20 06:01:03;;;;;;;16.13;3.03;;;;;;;12.68;nan;101288.91;4879750;29;20454;-87
2022/04/20 06:03:31;;;;;;;17.30;2.67;;;;;;;12.67;nan;101295.44;4880048;29;20483;-87
2022/04/20 06:06:03;;;;;;;20.90;3.40;;;;;;;12.76;nan;101294.25;4878834;29;20938;-87
2022/04/20 06:08:32;;;;;;;18.00;3.20;;;;;;;12.72;nan;101298.41;4879160;29;20454;-87
2022/04/20 06:11:02;;;;;;;14.13;2.33;;;;;;;12.74;nan;101295.47;4848272;29;20997;-86
2022/04/20 06:13:32;;;;;;;23.40;3.57;;;;;;;12.80;nan;101294.72;4848685;29;20950;-86
2022/04/20 06:16:01;;;;;;;16.53;4.00;;;;;;;12.87;nan;101311.25;4860483;29;20458;-87
2022/04/20 06:18:29;;;;;;;18.87;3.33;;;;;;;12.97;nan;101293.41;4844087;29;20945;-86
2022/04/20 06:20:58;;;;;;;16.73;2.80;;;;;;;13.01;nan;101302.09;4841450;29;20891;-87
2022/04/20 06:23:26;;;;;;;9.93;1.80;;;;;;;13.02;nan;101309.28;4858962;29;20484;-86
2022/04/20 06:25:55;;;;;;;6.70;1.27;;;;;;;12.93;nan;101297.59;4815596;29;20519;-87
2022/04/20 06:28:25;;;;;;;9.67;2.33;;;;;;;12.93;nan;101304.97;4848563;29;20517;-86
2022/04/20 06:30:53;;;;;;;11.13;1.80;;;;;;;12.90;nan;101311.69;4847589;29;20455;-88
2022/04/20 06:33:21;;;;;;;10.63;2.33;;;;;;;12.88;nan;101301.97;4847474;29;20502;-87
2022/04/20 06:35:49;;;;;;;15.03;1.70;;;;;;;12.91;nan;101313.38;4863028;29;20451;-87
2022/04/20 06:38:17;;;;;;;9.37;1.93;;;;;;;12.96;nan;101313.66;4856304;29;20462;-87
2022/04/20 06:40:45;;;;;;;5.03;1.33;;;;;;;12.97;nan;101318.09;4830236;29;20451;-86
2022/04/20 06:43:14;;;;;;;12.43;1.77;;;;;;;12.99;nan;101304.19;4843576;29;20509;-87
2022/04/20 06:45:44;;;;;;;9.67;2.70;;;;;;;13.05;nan;101307.00;4879781;29;20454;-87
2022/04/20 06:48:12;;;;;;;9.47;1.83;;;;;;;13.08;nan;101312.06;4863393;29;20454;-87
2022/04/20 06:50:41;;;;;;;10.70;1.87;;;;;;;13.10;nan;101312.72;4856211;29;20499;-87
2022/04/20 06:58:48;;;;;;;13.27;2.00;;;;;;;13.37;nan;101302.88;4878803;29;20457;-86
2022/04/20 07:01:16;;;;;;;13.20;2.60;;;;;;;13.35;nan;101263.78;4863109;29;20512;-87
2022/04/20 07:03:46;;;;;;;13.13;2.00;;;;;;;13.49;nan;101290.28;4847075;29;20483;-86
2022/04/20 07:06:14;;;;;;;13.17;2.10;;;;;;;13.49;nan;101284.81;4848035;29;20455;-87
2022/04/20 07:08:41;;;;;;;12.77;2.10;;;;;;;13.45;nan;101268.94;4843969;29;20814;-86
2022/04/20 07:11:09;;;;;;;16.60;2.23;;;;;;;13.49;nan;101301.28;4863032;29;20463;-87
2022/04/20 07:13:37;;;;;;;7.50;1.73;;;;;;;13.55;nan;101294.16;4877662;29;20450;-87
2022/04/20 07:16:05;;;;;;;10.50;1.70;;;;;;;13.56;nan;101297.75;4863149;29;20455;-86
2022/04/20 07:18:33;;;;;;;25.23;2.57;;;;;;;13.59;nan;101289.97;4878386;29;20466;-86
2022/04/20 07:21:03;;;;;;;13.30;1.90;;;;;;;13.66;nan;101274.34;4861179;29;21018;-86
2022/04/20 07:23:33;;;;;;;14.13;2.60;;;;;;;13.69;nan;101279.44;4876669;29;20458;-87
2022/04/20 07:26:02;;;;;;;11.53;2.33;;;;;;;13.73;nan;101279.91;4844811;29;20499;-87
2022/04/20 07:28:31;;;;;;;17.17;2.50;;;;;;;13.81;nan;101277.88;4832657;29;20502;-86
2022/04/20 07:31:02;;;;;;;13.73;3.20;;;;;;;13.78;nan;101264.53;4861869;29;20457;-86
2022/04/20 07:33:30;;;;;;;15.60;2.33;;;;;;;13.83;nan;101266.66;4857699;29;20466;-85
2022/04/20 07:36:02;;;;;;;13.67;2.20;;;;;;;13.88;nan;101302.59;4847418;29;20450;-86
2022/04/20 07:38:29;;;;;;;13.13;1.90;;;;;;;13.87;nan;101264.34;4879106;29;20540;-86
2022/04/20 07:40:57;;;;;;;5.77;1.97;;;;;;;13.87;nan;101228.63;4832712;29;20513;-84
2022/04/20 07:43:25;;;;;;;9.47;1.87;;;;;;;13.97;nan;101262.94;4847154;29;20447;-88
2022/04/20 07:45:54;;;;;;;13.53;2.20;;;;;;;14.01;nan;101277.13;4842712;29;20826;-86
2022/04/20 07:48:23;;;;;;;8.70;2.00;;;;;;;14.07;nan;101277.13;4844267;29;20814;-86
2022/04/20 07:50:52;;;;;;;17.57;2.13;;;;;;;14.06;nan;101285.59;4844345;29;20445;-85
2022/04/20 07:53:20;;;;;;;17.27;2.13;;;;;;;14.13;nan;101278.22;4846822;29;20511;-85
2022/04/20 07:55:49;;;;;;;18.07;5.73;;;;;;;14.17;nan;101283.13;4846404;29;20466;-86
2022/04/20 07:58:18;;;;;;;15.30;3.40;;;;;;;14.24;nan;101283.13;4877065;29;20509;-87
2022/04/20 08:00:49;;;;;;;12.97;2.20;;;;;;;14.24;nan;101288.63;4878105;29;20455;-86
2022/04/20 08:03:17;;;;;;;10.50;1.77;;;;;;;14.17;nan;101298.78;4861454;29;20442;-86
2022/04/20 08:05:49;;;;;;;9.40;1.93;;;;;;;14.28;nan;101314.69;4834804;29;20474;-86
2022/04/20 08:08:17;;;;;;;10.10;2.13;;;;;;;14.22;nan;101298.16;4846488;29;20446;-86
2022/04/20 08:10:45;;;;;;;9.17;1.87;;;;;;;14.22;nan;101307.25;4846160;29;20457;-86
2022/04/20 08:16:00;;;;;;;12.77;2.80;;;;;;;14.40;nan;101298.47;4851713;29;20435;-86
2022/04/20 08:18:28;;;;;;;9.77;1.80;;;;;;;14.46;nan;101284.75;4846428;29;20451;-86
2022/04/20 08:20:55;;;;;;;14.57;2.80;;;;;;;14.59;nan;101280.38;4846034;29;20472;-86
2022/04/20 08:23:27;;;;;;;7.77;1.93;;;;;;;14.82;nan;101291.81;4861121;29;20930;-86
2022/04/20 08:25:56;;;;;;;17.53;2.47;;;;;;;14.94;nan;101312.19;4849674;29;20482;-87
2022/04/20 08:28:24;;;;;;;7.93;2.27;;;;;;;15.01;nan;101318.53;4865147;29;20442;-86
2022/04/20 08:30:53;;;;;;;17.00;2.87;;;;;;;14.77;nan;101316.38;4835315;29;20502;-86
2022/04/20 08:33:21;;;;;;;9.67;2.63;;;;;;;14.48;nan;101296.38;4863406;29;20463;-86
2022/04/20 08:35:49;;;;;;;12.13;2.53;;;;;;;14.37;nan;101299.72;4834174;29;20451;-86
2022/04/20 08:38:18;;;;;;;13.13;2.67;;;;;;;14.17;nan;101326.25;4851226;29;20819;-86
2022/04/20 08:40:47;;;;;;;9.77;2.30;;;;;;;13.94;nan;101309.22;4865687;29;20522;-86
2022/04/20 08:43:15;;;;;;;18.00;2.60;;;;;;;13.90;nan;101321.66;4846095;29;20455;-86
2022/04/20 08:45:44;;;;;;;16.10;3.50;;;;;;;13.97;nan;101297.81;4845417;29;20483;-86
2022/04/20 08:48:12;;;;;;;22.60;3.60;;;;;;;14.06;nan;101293.84;4864715;29;20981;-86
2022/04/20 08:50:40;;;;;;;15.50;2.30;;;;;;;14.03;nan;101286.88;4849106;29;20451;-86
2022/04/20 08:53:09;;;;;;;23.70;4.43;;;;;;;14.13;nan;101302.97;4832177;29;20464;-86
2022/04/20 08:55:37;;;;;;;15.80;1.87;;;;;;;14.13;nan;101291.97;4850137;29;20453;-86
2022/04/20 08:58:05;;;;;;;14.50;2.80;;;;;;;14.29;nan;101305.38;4864761;29;20460;-86
2022/04/20 09:00:33;;;;;;;6.80;1.70;;;;;;;14.40;nan;101307.59;4849384;29;20462;-86
2022/04/20 09:03:03;;;;;;;10.40;2.07;;;;;;;14.49;nan;101325.59;4864198;29;20550;-86
2022/04/20 09:05:36;;;;;;;7.63;1.97;;;;;;;14.59;nan;101307.88;4879038;29;20502;-86
2022/04/20 09:08:09;;;;;;;19.87;2.77;;;;;;;14.67;nan;101326.94;4881177;29;20579;-86
2022/04/20 09:10:39;;;;;;;10.73;2.40;;;;;;;14.68;nan;101328.63;4879845;29;20446;-85
2022/04/20 09:13:13;;;;;;;11.53;2.10;;;;;;;14.79;nan;101314.28;4865571;29;20461;-86
2022/04/20 09:15:41;;;;;;;10.93;1.90;;;;;;;14.84;nan;101322.75;4850411;29;20501;-86
2022/04/20 09:18:10;;;;;;;13.17;2.20;;;;;;;14.89;nan;101317.47;4849535;29;20453;-86
2022/04/20 09:20:38;;;;;;;18.50;2.23;;;;;;;14.94;nan;101316.84;4864190;29;20569;-85
2022/04/20 09:23:08;;;;;;;8.20;1.53;;;;;;;15.14;nan;101328.75;4833415;29;20454;-87
2022/04/20 09:25:48;;;;;;;9.00;1.57;;;;;;;15.34;nan;101323.25;4847292;29;20842;-86
2022/04/20 09:28:15;;;;;;;19.20;2.10;;;;;;;15.49;nan;101334.91;4831346;29;20455;-87
2022/04/20 09:30:44;;;;;;;13.67;2.10;;;;;;;15.49;nan;101351.44;4847704;29;20455;-85
2022/04/20 09:33:15;;;;;;;8.33;1.53;;;;;;;15.33;nan;101341.69;4849807;29;20447;-86
2022/04/20 09:35:46;;;;;;;6.83;1.37;;;;;;;15.08;nan;101344.19;4864387;29;20836;-86
2022/04/20 09:38:18;;;;;;;14.13;2.10;;;;;;;15.16;nan;101332.16;4849782;29;20573;-86
2022/04/20 09:40:46;;;;;;;6.40;1.87;;;;;;;15.31;nan;101362.25;4830220;29;20452;-85
2022/04/20 09:43:16;;;;;;;6.83;1.50;;;;;;;15.31;nan;101329.19;4844993;29;20452;-86
2022/04/20 09:45:44;;;;;;;12.70;2.50;;;;;;;15.52;nan;101373.06;4861011;29;20550;-86
2022/04/20 09:51:14;;;;;;;10.73;1.80;;;;;;;15.48;nan;101352.50;4854639;29;20470;-85
2022/04/20 09:53:45;;;;;;;10.57;2.10;;;;;;;15.42;nan;101336.81;4833420;29;20449;-86
2022/04/20 09:56:20;;;;;;;13.30;2.30;;;;;;;15.32;nan;101341.91;4868795;29;20514;-85
2022/04/20 09:59:03;;;;;;;19.67;2.30;;;;;;;15.39;nan;101348.28;4851045;29;21009;-87
2022/04/20 10:01:34;;;;;;;12.60;2.37;;;;;;;15.45;nan;101309.69;4830187;29;20462;-86
2022/04/20 10:04:06;;;;;;;10.35;2.50;;;;;;;15.73;nan;101315.03;4818585;29;20458;-86
2022/04/20 10:06:36;;;;;;;10.60;1.67;;;;;;;16.01;nan;101330.44;4863026;29;20462;-86
2022/04/20 10:09:08;;;;;;;9.70;1.80;;;;;;;16.16;nan;101322.78;4863277;29;20457;-86
2022/04/20 10:11:38;;;;;;;8.03;1.60;;;;;;;16.22;nan;101328.28;4878962;29;20869;-86
2022/04/20 10:16:54;;;;;;;15.13;2.23;;;;;;;16.39;nan;101309.31;4853645;29;20830;-86
2022/04/20 10:19:26;;;;;;;13.67;3.00;;;;;;;16.56;nan;101329.84;4863706;29;20450;-86
2022/04/20 10:21:55;;;;;;;15.73;2.20;;;;;;;16.55;nan;101333.66;4833638;29;21010;-86
2022/04/20 10:24:32;;;;;;;8.53;2.07;;;;;;;16.34;nan;101333.97;4863241;29;20451;-85
2022/04/20 10:27:04;;;;;;;13.90;2.60;;;;;;;16.50;nan;101347.28;4893684;29;20960;-86
2022/04/20 10:29:52;;;;;;;13.87;1.70;;;;;;;16.70;nan;101338.97;4862269;29;20966;-86
2022/04/20 10:32:25;;;;;;;9.10;1.93;;;;;;;16.87;nan;101325.50;4863953;29;20451;-87
2022/04/20 10:34:53;;;;;;;12.03;1.87;;;;;;;16.86;nan;101363.28;4833730;29;20446;-86
2022/04/20 10:37:28;;;;;;;10.83;2.30;;;;;;;16.65;nan;101348.94;4831258;29;20451;-86
2022/04/20 10:40:16;;;;;;;9.83;1.73;;;;;;;16.44;nan;101326.06;4867122;29;20466;-86
2022/04/20 10:43:26;;;;;;;12.27;1.60;;;;;;;16.41;nan;101351.34;4891797;29;20458;-86
2022/04/20 10:46:06;;;;;;;12.10;1.80;;;;;;;16.44;nan;101341.78;4858229;29;20486;-86
2022/04/20 10:48:49;;;;;;;15.57;1.97;;;;;;;16.73;nan;101330.25;4848878;29;20482;-86
2022/04/20 10:51:18;;;;;;;15.77;2.03;;;;;;;16.79;nan;101345.06;4878258;29;20458;-87
2022/04/20 10:53:48;;;;;;;13.20;1.50;;;;;;;16.84;nan;101342.50;4891617;29;20467;-84
2022/04/20 10:56:17;;;;;;;6.57;1.70;;;;;;;17.04;nan;101342.38;4878305;29;20439;-83
2022/04/20 10:59:11;;;;;;;10.30;1.87;;;;;;;17.22;nan;101343.31;4862470;29;20462;-83
2022/04/20 11:02:02;;;;;;;13.70;2.07;;;;;;;17.32;nan;101319.88;4858356;29;20454;-88
2022/04/20 11:04:48;;;;;;;9.73;1.47;;;;;;;17.31;nan;101315.44;4878053;29;20463;-86
2022/04/20 11:07:19;;;;;;;15.50;2.00;;;;;;;17.27;nan;101354.56;4849352;29;20949;-90
2022/04/20 11:10:08;;;;;;;16.60;2.90;;;;;;;17.39;nan;101285.59;4834143;29;20810;-86
2022/04/20 11:18:44;;;;;;;10.60;2.17;;;;;;;18.30;nan;101293.19;4897416;29;20541;-85
2022/04/20 11:21:15;;;;;;;11.73;2.33;;;;;;;18.44;nan;101305.81;4841596;29;20485;-85
2022/04/20 11:24:05;;;;;;;15.23;2.70;;;;;;;18.02;nan;101313.09;4830935;29;20967;-87
2022/04/20 11:26:55;;;;;;;10.43;1.93;;;;;;;17.98;nan;101317.38;4834083;29;20479;-88
2022/04/20 11:29:25;;;;;;;12.67;1.80;;;;;;;18.04;nan;101288.81;4844424;29;20934;-85
2022/04/20 11:32:08;;;;;;;13.77;2.30;;;;;;;18.03;nan;101294.56;4858754;29;20458;-89
2022/04/20 11:34:41;;;;;;;16.53;2.03;;;;;;;17.92;nan;101291.47;4847404;29;20805;-90
2022/04/20 11:37:10;;;;;;;13.73;2.20;;;;;;;18.10;nan;101317.47;4863114;29;20437;-91
2022/04/20 11:39:38;;;;;;;18.00;3.23;;;;;;;18.14;nan;101293.81;4847137;29;20450;-89
2022/04/20 11:42:06;;;;;;;29.00;8.20;;;;;;;18.08;nan;101303.03;4846784;29;21050;-89
2022/04/20 11:44:36;;;;;;;8.10;2.00;;;;;;;18.11;nan;101321.91;4845212;29;20823;-92
2022/04/20 11:47:07;;;;;;;12.50;2.37;;;;;;;18.07;nan;101312.41;4862891;29;20487;-89
2022/04/20 11:49:40;;;;;;;10.40;2.30;;;;;;;18.13;nan;101287.41;4862540;29;20458;-89
2022/04/20 11:52:14;;;;;;;7.60;2.60;;;;;;;18.35;nan;101318.25;4859553;29;20903;-89
2022/04/20 11:54:45;;;;;;;11.90;1.73;;;;;;;18.46;nan;101309.19;4847398;29;20808;-89
2022/04/20 11:57:18;;;;;;;20.37;2.43;;;;;;;18.37;nan;101305.03;4847311;29;20446;-89
2022/04/20 11:59:50;;;;;;;8.93;1.87;;;;;;;18.20;nan;101304.81;4863037;29;20465;-90
2022/04/20 12:02:19;;;;;;;9.77;2.40;;;;;;;18.15;nan;101301.03;4836555;29;20462;-90
2022/04/20 12:04:47;;;;;;;11.23;2.13;;;;;;;18.12;nan;101329.16;4836589;29;20450;-90
2022/04/20 12:07:16;;;;;;;6.83;1.50;;;;;;;18.10;nan;101309.16;4835887;29;20949;-89
2022/04/20 12:09:46;;;;;;;21.43;2.43;;;;;;;18.36;nan;101291.41;4836022;29;20446;-89
2022/04/20 12:12:16;;;;;;;14.87;2.77;;;;;;;18.45;nan;101307.50;4849709;29;20457;-90
2022/04/20 12:14:46;;;;;;;11.13;2.00;;;;;;;18.47;nan;101280.41;4855111;29;20945;-90